createdAt,value
2019-03-18T00:04:02.242Z,7.00
2019-03-18T00:10:04.856Z,7.00
2019-03-18T00:16:07.134Z,7.00
2019-03-18T00:22:09.821Z,7.30
2019-03-18T00:28:12.011Z,7.70
2019-03-18T00:34:14.748Z,7.50
2019-03-18T00:40:23.095Z,7.30
2019-03-18T00:46:25.409Z,7.30
2019-03-18T00:52:27.744Z,7.60
2019-03-18T00:58:30.033Z,7.40
2019-03-18T01:04:33.360Z,7.20
2019-03-18T01:10:35.877Z,7.10
2019-03-18T01:16:38.158Z,7.00
2019-03-18T01:22:40.355Z,7.00
2019-03-18T01:28:42.579Z,6.90
2019-03-18T01:34:44.787Z,6.90
2019-03-18T01:40:46.922Z,6.80
2019-03-18T01:46:49.102Z,6.80
2019-03-18T01:52:51.231Z,6.90
2019-03-18T01:58:53.437Z,6.80
2019-03-18T02:04:55.687Z,6.70
2019-03-18T02:10:57.854Z,6.70
2019-03-18T02:17:00.323Z,7.00
2019-03-18T02:23:02.776Z,6.90
2019-03-18T02:29:04.943Z,6.90
2019-03-18T02:35:07.165Z,6.90
2019-03-18T02:41:09.283Z,6.90
2019-03-18T02:47:11.441Z,7.30
2019-03-18T02:53:13.615Z,7.20
2019-03-18T02:59:15.865Z,7.20
2019-03-18T03:05:18.192Z,7.00
2019-03-18T03:11:20.689Z,7.00
2019-03-18T03:17:22.940Z,6.90
2019-03-18T03:23:25.328Z,6.80
2019-03-18T03:29:27.517Z,6.70
2019-03-18T03:35:29.776Z,6.60
2019-03-18T03:41:31.988Z,6.60
2019-03-18T03:47:34.219Z,6.60
2019-03-18T03:53:36.360Z,6.50
2019-03-18T03:59:38.491Z,6.50
2019-03-18T04:05:40.849Z,6.50
2019-03-18T04:11:43.097Z,6.50
2019-03-18T04:17:45.700Z,6.50
2019-03-18T04:23:48.027Z,6.50
2019-03-18T04:29:51.256Z,6.50
2019-03-18T04:35:53.436Z,6.50
2019-03-18T04:41:55.570Z,6.40
2019-03-18T04:47:57.707Z,6.40
2019-03-18T04:53:59.883Z,6.30
2019-03-18T05:00:02.293Z,6.30
2019-03-18T05:06:04.498Z,6.20
2019-03-18T05:12:06.651Z,6.20
2019-03-18T05:18:08.880Z,6.20
2019-03-18T05:24:11.120Z,6.20
2019-03-18T05:30:13.341Z,6.10
2019-03-18T05:36:15.603Z,6.10
2019-03-18T05:42:17.802Z,6.10
2019-03-18T05:48:20.072Z,6.10
2019-03-18T05:54:22.197Z,6.10
2019-03-18T06:00:24.579Z,6.10
2019-03-18T06:06:26.808Z,6.10
2019-03-18T06:12:29.033Z,6.10
2019-03-18T06:18:31.262Z,6.10
2019-03-18T06:24:33.475Z,6.20
2019-03-18T06:30:35.853Z,6.20
2019-03-18T06:36:38.157Z,6.30
2019-03-18T06:42:42.565Z,6.30
2019-03-18T06:48:44.807Z,6.30
2019-03-18T06:54:47.032Z,6.50
2019-03-18T07:00:49.247Z,6.60
2019-03-18T07:06:51.730Z,6.70
2019-03-18T07:12:54.384Z,6.70
2019-03-18T07:18:56.681Z,6.70
2019-03-18T07:24:59.685Z,6.80
2019-03-18T07:31:02.093Z,6.90
2019-03-18T07:37:04.153Z,7.00
2019-03-18T07:43:06.433Z,7.10
2019-03-18T07:49:09.595Z,7.10
2019-03-18T07:55:11.917Z,7.10
2019-03-18T08:01:14.201Z,7.20
2019-03-18T08:07:16.354Z,7.30
2019-03-18T08:13:18.763Z,7.30
2019-03-18T08:19:20.996Z,7.40
2019-03-18T08:25:23.393Z,7.50
2019-03-18T08:31:25.675Z,7.60
2019-03-18T08:37:28.022Z,7.60
2019-03-18T08:43:30.324Z,7.80
2019-03-18T08:49:32.737Z,8.00
2019-03-18T08:55:35.022Z,8.10
2019-03-18T09:01:37.230Z,8.40
2019-03-18T09:07:39.955Z,8.60
2019-03-18T09:13:42.088Z,8.50
2019-03-18T09:19:44.345Z,8.50
2019-03-18T09:25:46.580Z,8.50
2019-03-18T09:31:48.900Z,8.60
2019-03-18T09:37:53.593Z,8.70
2019-03-18T09:43:55.763Z,8.80
2019-03-18T09:49:58.762Z,8.90
2019-03-18T09:56:00.901Z,8.90
2019-03-18T10:02:03.237Z,9.10
2019-03-18T10:08:05.477Z,9.20
2019-03-18T10:14:07.644Z,9.30
2019-03-18T10:20:09.956Z,9.40
2019-03-18T10:26:12.151Z,9.40
2019-03-18T10:32:15.439Z,9.40
2019-03-18T10:38:17.597Z,9.50
2019-03-18T10:44:20.063Z,9.80
2019-03-18T10:50:22.444Z,9.70
2019-03-18T10:56:24.684Z,9.60
2019-03-18T11:02:26.881Z,9.60
2019-03-18T11:08:29.127Z,9.80
2019-03-18T11:14:31.581Z,10.00
2019-03-18T11:20:33.851Z,10.30
2019-03-18T11:26:36.279Z,10.40
2019-03-18T11:32:38.475Z,10.20
2019-03-18T11:38:40.943Z,10.00
2019-03-18T11:44:43.136Z,9.80
2019-03-18T11:50:45.932Z,9.30
2019-03-18T11:56:48.089Z,8.70
2019-03-18T12:02:50.318Z,8.40
2019-03-18T12:08:52.738Z,8.40
2019-03-18T12:14:55.337Z,8.50
2019-03-18T12:20:57.449Z,8.70
2019-03-18T12:26:59.658Z,8.50
2019-03-18T12:33:01.956Z,8.80
2019-03-18T12:39:05.667Z,8.80
2019-03-18T12:45:09.360Z,8.70
2019-03-18T12:51:11.685Z,8.80
2019-03-18T12:57:13.901Z,9.00
2019-03-18T13:03:16.383Z,9.10
2019-03-18T13:09:19.330Z,9.20
2019-03-18T13:15:21.551Z,9.20
2019-03-18T13:21:23.869Z,9.10
2019-03-18T13:27:26.119Z,8.90
2019-03-18T13:33:28.925Z,8.70
2019-03-18T13:39:31.169Z,8.70
2019-03-18T13:45:33.905Z,8.50
2019-03-18T13:51:36.289Z,8.50
2019-03-18T13:57:38.542Z,8.30
2019-03-18T14:03:40.794Z,8.20
2019-03-18T14:09:43.369Z,8.20
2019-03-18T14:15:45.885Z,8.30
2019-03-18T14:21:48.096Z,8.30
2019-03-18T14:27:50.311Z,8.30
2019-03-18T14:33:52.488Z,8.30
2019-03-18T14:39:55.179Z,8.20
2019-03-18T14:45:57.309Z,8.40
2019-03-18T14:51:59.567Z,8.50
2019-03-18T14:58:01.854Z,8.50
2019-03-18T15:04:04.243Z,8.50
2019-03-18T15:10:07.284Z,8.30
2019-03-18T15:16:09.612Z,8.30
2019-03-18T15:22:11.964Z,8.40
2019-03-18T15:28:14.310Z,8.60
2019-03-18T15:34:16.640Z,8.60
2019-03-18T15:40:18.908Z,8.80
2019-03-18T15:46:21.231Z,8.80
2019-03-18T15:52:24.423Z,8.50
2019-03-18T15:58:27.589Z,8.30
2019-03-18T16:04:29.977Z,8.20
2019-03-18T16:10:32.392Z,7.90
2019-03-18T16:16:34.738Z,7.70
2019-03-18T16:22:37.159Z,7.60
2019-03-18T16:28:39.507Z,7.50
2019-03-18T16:34:41.849Z,7.30
2019-03-18T16:40:44.445Z,7.20
2019-03-18T16:46:46.699Z,7.00
2019-03-18T16:52:49.001Z,6.90
2019-03-18T16:58:53.575Z,6.70
2019-03-18T17:04:56.082Z,6.70
2019-03-18T17:10:58.490Z,6.70
2019-03-18T17:17:00.939Z,6.70
2019-03-18T17:23:03.368Z,6.70
2019-03-18T17:29:05.823Z,6.80
2019-03-18T17:35:08.277Z,6.80
2019-03-18T17:41:10.521Z,6.80
2019-03-18T17:47:12.757Z,6.80
2019-03-18T17:53:15.272Z,6.70
2019-03-18T17:59:17.452Z,6.70
2019-03-18T18:05:20.231Z,6.40
2019-03-18T18:11:22.795Z,6.10
2019-03-18T18:17:26.418Z,5.90
2019-03-18T18:23:29.012Z,5.70
2019-03-18T18:29:31.408Z,5.50
2019-03-18T18:35:33.927Z,5.40
2019-03-18T18:41:36.564Z,5.20
2019-03-18T18:47:39.160Z,5.00
2019-03-18T18:53:41.451Z,4.80
2019-03-18T18:59:43.747Z,4.70
2019-03-18T19:05:46.180Z,4.60
2019-03-18T19:11:50.204Z,4.60
2019-03-18T19:17:55.196Z,4.50
2019-03-18T19:23:57.913Z,4.50
2019-03-18T19:30:00.465Z,4.40
2019-03-18T19:36:02.927Z,4.30
2019-03-18T19:42:07.684Z,4.20
2019-03-18T19:48:10.114Z,4.10
2019-03-18T19:54:13.001Z,4.00
2019-03-18T20:00:17.072Z,3.80
2019-03-18T20:06:19.544Z,3.70
2019-03-18T20:12:21.909Z,3.60
2019-03-18T20:18:24.308Z,3.40
2019-03-18T20:24:26.771Z,3.30
2019-03-18T20:30:29.032Z,3.10
2019-03-18T20:36:31.399Z,3.00
2019-03-18T20:42:35.342Z,2.80
2019-03-18T20:48:37.785Z,2.70
2019-03-18T20:54:41.581Z,2.60
2019-03-18T21:00:43.919Z,2.50
2019-03-18T21:06:46.257Z,2.40
2019-03-18T21:12:48.658Z,2.40
2019-03-18T21:18:53.043Z,2.30
2019-03-18T21:24:55.382Z,2.20
2019-03-18T21:30:57.731Z,2.20
2019-03-18T21:37:00.282Z,2.10
2019-03-18T21:43:03.678Z,2.00
2019-03-18T21:49:06.028Z,1.90
2019-03-18T21:55:08.364Z,1.80
2019-03-18T22:01:10.742Z,1.70
2019-03-18T22:07:12.957Z,1.70
2019-03-18T22:13:15.201Z,1.60
2019-03-18T22:19:18.816Z,1.50
2019-03-18T22:25:21.198Z,1.50
2019-03-18T22:31:23.472Z,1.50
2019-03-18T22:37:25.777Z,1.50
2019-03-18T22:43:28.110Z,1.50
2019-03-18T22:49:30.703Z,1.60
2019-03-18T22:55:33.535Z,1.50
2019-03-18T23:01:36.220Z,1.50
2019-03-18T23:07:38.384Z,1.60
2019-03-18T23:13:40.733Z,1.60
2019-03-18T23:19:43.400Z,1.70
2019-03-18T23:25:45.907Z,1.80
2019-03-18T23:31:48.398Z,1.90
2019-03-18T23:37:50.668Z,1.90
2019-03-18T23:43:53.194Z,1.90
2019-03-18T23:49:55.526Z,1.80
2019-03-18T23:55:57.996Z,1.70
